Time;durP1;ratioP1;P1;durP2;ratioP2;P2;SDS_P1;SDS_P2;PMS_P1;PMS_P2;Temp;Humidity;BMP_temperature;BMP_pressure;BME280_temperature;BME280_humidity;BME280_pressure;Samples;Min_cycle;Max_cycle;Signal;HPM_P1;HPM_P2
2023/10/04 00:01:16;;;;;;;1999.90;999.90;;;10.30;90.90;;;;;;5039744;28;20048;-75
2023/10/04 00:03:46;;;;;;;1999.90;999.90;;;10.30;91.00;;;;;;5039750;28;20563;-76
2023/10/04 00:06:12;;;;;;;1999.90;999.90;;;10.20;91.20;;;;;;5041734;28;20048;-77
2023/10/04 00:08:38;;;;;;;1999.90;999.90;;;10.20;91.60;;;;;;5039117;28;20399;-76
2023/10/04 00:11:04;;;;;;;1999.90;999.90;;;10.00;91.70;;;;;;5038919;28;20388;-75
2023/10/04 00:13:30;;;;;;;1999.90;999.90;;;10.00;91.80;;;;;;5039040;28;20436;-74
2023/10/04 00:15:56;;;;;;;1999.90;999.90;;;10.00;91.70;;;;;;5036460;28;20040;-75
2023/10/04 00:18:22;;;;;;;1999.90;999.90;;;10.00;91.80;;;;;;5038950;28;20030;-77
2023/10/04 00:20:48;;;;;;;1999.90;999.90;;;10.00;91.90;;;;;;5040670;28;20029;-75
2023/10/04 00:23:14;;;;;;;1999.90;999.90;;;9.90;92.00;;;;;;5040376;28;20040;-74
2023/10/04 00:25:40;;;;;;;1999.90;999.90;;;10.00;92.10;;;;;;5038311;28;20041;-75
2023/10/04 00:28:07;;;;;;;1999.90;999.90;;;10.00;92.20;;;;;;5033950;28;20036;-76
2023/10/04 00:30:33;;;;;;;1999.90;999.90;;;9.90;92.20;;;;;;5036719;28;20168;-75
2023/10/04 00:33:02;;;;;;;1999.90;999.90;;;9.80;92.10;;;;;;5038084;28;20119;-75
2023/10/04 00:35:28;;;;;;;1999.90;999.90;;;9.70;92.20;;;;;;5034511;28;20057;-75
2023/10/04 00:37:57;;;;;;;1999.90;999.90;;;9.70;92.30;;;;;;5041905;28;20033;-76
2023/10/04 00:40:28;;;;;;;1999.90;999.90;;;9.60;92.20;;;;;;5037656;28;20034;-75
2023/10/04 00:42:54;;;;;;;;;;;9.60;92.30;;;;;;5047331;28;20025;-76
2023/10/04 00:45:23;;;;;;;1999.90;999.90;;;9.60;92.40;;;;;;5059157;28;19976;-75
2023/10/04 00:47:57;;;;;;;1999.90;999.90;;;9.60;92.30;;;;;;5041061;28;20044;-76
2023/10/04 00:50:31;;;;;;;1999.90;999.90;;;9.50;92.30;;;;;;5040131;28;20036;-76
2023/10/04 00:53:15;;;;;;;1999.90;999.90;;;9.50;92.40;;;;;;5041180;28;20047;-75
2023/10/04 00:55:45;;;;;;;1999.90;999.90;;;9.50;92.60;;;;;;5038126;28;20037;-76
2023/10/04 00:58:13;;;;;;;1999.90;999.90;;;9.40;92.60;;;;;;5038294;28;20075;-75
2023/10/04 01:00:41;;;;;;;1999.90;999.90;;;9.30;92.60;;;;;;5041477;28;20037;-74
2023/10/04 01:03:09;;;;;;;1999.90;999.90;;;9.20;92.80;;;;;;5042017;28;20056;-76
2023/10/04 01:05:45;;;;;;;1999.90;999.90;;;9.30;92.80;;;;;;5034198;28;20095;-76
2023/10/04 01:08:14;;;;;;;1999.90;999.90;;;9.10;92.80;;;;;;5039130;28;20130;-75
2023/10/04 01:10:40;;;;;;;1999.90;999.90;;;9.20;93.00;;;;;;5044403;28;20078;-76
2023/10/04 01:13:06;;;;;;;1999.90;999.90;;;9.20;93.10;;;;;;5043718;28;20422;-76
2023/10/04 01:15:32;;;;;;;1999.90;999.90;;;9.20;93.10;;;;;;5019892;28;20021;-74
2023/10/04 01:18:00;;;;;;;1999.90;999.90;;;9.10;93.20;;;;;;5042156;28;20044;-76
2023/10/04 01:20:33;;;;;;;1999.90;999.90;;;9.10;93.30;;;;;;5032570;28;20156;-75
2023/10/04 01:23:01;;;;;;;1999.90;999.90;;;9.10;93.30;;;;;;5041325;28;20043;-74
2023/10/04 01:25:31;;;;;;;1999.90;999.90;;;9.10;93.40;;;;;;5035420;28;20064;-76
2023/10/04 01:27:58;;;;;;;1999.90;999.90;;;9.20;93.60;;;;;;5038699;28;20087;-75
2023/10/04 01:30:24;;;;;;;1999.90;999.90;;;9.30;93.70;;;;;;5028738;28;20071;-75
2023/10/04 01:32:54;;;;;;;1999.90;999.90;;;9.30;93.60;;;;;;5031153;28;20615;-75
2023/10/04 01:35:24;;;;;;;1999.90;999.90;;;9.40;93.70;;;;;;5034966;28;20076;-75
2023/10/04 01:37:53;;;;;;;1999.90;999.90;;;9.40;93.60;;;;;;5031924;28;20052;-75
2023/10/04 01:40:24;;;;;;;1999.90;999.90;;;9.40;93.50;;;;;;5034633;28;20034;-76
2023/10/04 01:42:50;;;;;;;1999.90;999.90;;;9.30;93.50;;;;;;5035874;28;20036;-75
2023/10/04 01:45:18;;;;;;;1999.90;999.90;;;9.30;93.60;;;;;;5032029;28;20033;-75
2023/10/04 01:47:45;;;;;;;1999.90;999.90;;;9.30;93.50;;;;;;5039969;28;20625;-75
2023/10/04 01:50:12;;;;;;;1999.90;999.90;;;9.20;93.30;;;;;;5037949;28;20017;-75
2023/10/04 01:52:39;;;;;;;1999.90;999.90;;;9.20;93.40;;;;;;5036420;28;20065;-76
2023/10/04 01:55:06;;;;;;;1999.90;999.90;;;9.10;93.60;;;;;;5036403;28;20033;-75
2023/10/04 01:57:34;;;;;;;1999.90;999.90;;;9.00;93.50;;;;;;5040978;28;20039;-75
2023/10/04 02:00:01;;;;;;;1999.90;999.90;;;9.00;93.50;;;;;;5033586;28;20079;-76
2023/10/04 02:02:27;;;;;;;1999.90;999.90;;;9.00;93.70;;;;;;5033435;28;20037;-76
2023/10/04 02:04:54;;;;;;;1999.90;999.90;;;8.80;93.60;;;;;;5030869;28;20064;-75
2023/10/04 02:07:23;;;;;;;1999.90;999.90;;;8.80;93.60;;;;;;5037611;28;20487;-75
2023/10/04 02:09:51;;;;;;;1999.90;999.90;;;8.70;93.50;;;;;;5038673;28;20037;-75
2023/10/04 02:12:18;;;;;;;1999.90;999.90;;;8.60;93.40;;;;;;5036388;28;20044;-75
2023/10/04 02:14:46;;;;;;;1999.90;999.90;;;8.50;93.50;;;;;;5029026;28;20041;-76
2023/10/04 02:17:17;;;;;;;1999.90;999.90;;;8.50;93.40;;;;;;5037061;28;20079;-76
2023/10/04 02:19:46;;;;;;;1999.90;999.90;;;8.40;93.60;;;;;;5035049;28;20034;-74
2023/10/04 02:22:15;;;;;;;1999.90;999.90;;;8.40;93.80;;;;;;5040278;28;20032;-77
2023/10/04 02:24:41;;;;;;;1999.90;999.90;;;8.50;93.80;;;;;;5034146;28;20033;-76
2023/10/04 02:27:07;;;;;;;1999.90;999.90;;;8.50;93.60;;;;;;5019033;28;20036;-76
2023/10/04 02:29:38;;;;;;;1999.90;999.90;;;8.40;93.60;;;;;;5035101;28;20052;-75
2023/10/04 02:32:10;;;;;;;1999.90;999.90;;;8.30;93.60;;;;;;5038140;28;20052;-76
2023/10/04 02:34:36;;;;;;;1999.90;999.90;;;8.30;93.40;;;;;;5031989;28;20036;-75
2023/10/04 02:37:06;;;;;;;1999.90;999.90;;;8.30;93.50;;;;;;5035880;28;20103;-76
2023/10/04 02:39:34;;;;;;;1999.90;999.90;;;8.30;93.50;;;;;;5035526;28;20056;-76
2023/10/04 02:42:00;;;;;;;1999.90;999.90;;;8.20;93.50;;;;;;5033914;28;20036;-75
2023/10/04 02:44:25;;;;;;;1999.90;999.90;;;8.30;93.60;;;;;;5033557;28;20036;-77
2023/10/04 02:46:51;;;;;;;1999.90;999.90;;;8.30;93.60;;;;;;5037825;28;20483;-76
2023/10/04 02:49:17;;;;;;;1999.90;999.90;;;8.30;93.60;;;;;;5043001;28;20540;-76
2023/10/04 02:51:45;;;;;;;1999.90;999.90;;;8.30;93.60;;;;;;5032779;28;20510;-76
2023/10/04 02:54:11;;;;;;;1999.90;999.90;;;8.30;93.60;;;;;;5038070;28;20029;-74
2023/10/04 02:56:42;;;;;;;1999.90;999.90;;;8.30;93.50;;;;;;5037668;28;20024;-75
2023/10/04 02:59:07;;;;;;;1999.90;999.90;;;8.20;93.30;;;;;;5037597;28;20037;-75
2023/10/04 03:01:33;;;;;;;1999.90;999.90;;;8.20;93.30;;;;;;5035375;28;20033;-75
2023/10/04 03:03:59;;;;;;;1999.90;999.90;;;8.20;93.20;;;;;;5057426;28;20137;-75
2023/10/04 03:06:26;;;;;;;1999.90;999.90;;;8.10;93.30;;;;;;5034534;28;20124;-76
2023/10/04 03:08:51;;;;;;;1999.90;999.90;;;8.10;93.40;;;;;;5036852;28;20059;-74
2023/10/04 03:11:19;;;;;;;1999.90;999.90;;;8.20;93.60;;;;;;5034621;28;20053;-74
2023/10/04 03:13:47;;;;;;;1999.90;999.90;;;8.20;93.60;;;;;;5027855;28;20194;-76
2023/10/04 03:16:12;;;;;;;1999.90;999.90;;;8.10;93.40;;;;;;5036402;28;20033;-74
2023/10/04 03:18:39;;;;;;;1999.90;999.90;;;8.00;93.20;;;;;;5032397;28;20030;-75
2023/10/04 03:23:40;;;;;;;1999.90;999.90;;;7.90;93.00;;;;;;5036124;28;20068;-75
2023/10/04 03:26:06;;;;;;;1999.90;999.90;;;7.90;93.00;;;;;;5028517;28;20128;-75
2023/10/04 03:28:36;;;;;;;1999.90;999.90;;;8.00;93.20;;;;;;5031638;28;20144;-76
2023/10/04 03:31:03;;;;;;;1999.90;999.90;;;8.00;93.30;;;;;;5035675;28;20053;-75
2023/10/04 03:33:32;;;;;;;1999.90;999.90;;;7.90;93.20;;;;;;5032237;28;20041;-76
2023/10/04 03:36:04;;;;;;;1999.90;999.90;;;7.90;93.00;;;;;;5033837;28;20045;-74
2023/10/04 03:38:33;;;;;;;1999.90;999.90;;;7.90;93.00;;;;;;5028734;28;20029;-75
2023/10/04 03:41:00;;;;;;;1999.90;999.90;;;7.90;93.20;;;;;;5034011;28;20060;-75
2023/10/04 03:43:25;;;;;;;1999.90;999.90;;;7.80;93.20;;;;;;5033629;28;20086;-74
2023/10/04 03:45:51;;;;;;;1999.90;999.90;;;7.80;93.10;;;;;;5037658;28;20496;-75
2023/10/04 03:48:17;;;;;;;1999.90;999.90;;;7.70;93.20;;;;;;5030608;28;20033;-75
2023/10/04 03:50:47;;;;;;;1999.90;999.90;;;7.70;93.40;;;;;;5033243;28;20032;-74
2023/10/04 03:53:13;;;;;;;1999.90;999.90;;;7.70;93.50;;;;;;5033683;28;20033;-75
2023/10/04 03:55:39;;;;;;;1999.90;999.90;;;7.70;93.50;;;;;;5037280;28;20132;-75
2023/10/04 03:58:05;;;;;;;1999.90;999.90;;;7.80;93.80;;;;;;5036959;28;20479;-76
2023/10/04 04:00:32;;;;;;;1999.90;999.90;;;7.90;94.10;;;;;;5035263;28;20580;-75
2023/10/04 04:02:59;;;;;;;1999.90;999.90;;;7.90;94.00;;;;;;5035568;28;20050;-75
2023/10/04 04:05:25;;;;;;;1999.90;999.90;;;7.90;93.90;;;;;;5036619;28;20118;-75
2023/10/04 04:07:51;;;;;;;1999.90;999.90;;;7.90;93.80;;;;;;5036945;28;20491;-75
2023/10/04 04:10:19;;;;;;;1999.90;999.90;;;7.80;93.80;;;;;;5036779;28;20028;-76
2023/10/04 04:12:46;;;;;;;1999.90;999.90;;;7.80;93.80;;;;;;5034407;28;20048;-75
2023/10/04 04:15:18;;;;;;;1999.90;999.90;;;7.80;94.00;;;;;;5038599;28;20041;-75
2023/10/04 04:17:48;;;;;;;1999.90;999.90;;;7.80;94.00;;;;;;5037049;28;20029;-74
2023/10/04 04:20:17;;;;;;;1999.90;999.90;;;7.80;94.20;;;;;;5037174;28;20033;-74
2023/10/04 04:22:53;;;;;;;1999.90;999.90;;;7.80;94.30;;;;;;5042482;28;20028;-74
2023/10/04 04:25:19;;;;;;;1999.90;999.90;;;7.80;94.10;;;;;;5035538;28;20070;-75
2023/10/04 04:27:46;;;;;;;1999.90;999.90;;;7.70;94.00;;;;;;5042374;28;20494;-76
2023/10/04 04:30:18;;;;;;;1999.90;999.90;;;7.70;94.00;;;;;;5040860;28;20526;-74
2023/10/04 04:32:45;;;;;;;1999.90;999.90;;;7.60;93.80;;;;;;5040592;28;20061;-74
2023/10/04 04:35:15;;;;;;;1999.90;999.90;;;7.60;93.90;;;;;;5039626;28;20167;-78
2023/10/04 04:37:41;;;;;;;1999.90;999.90;;;7.50;94.10;;;;;;5034349;28;20652;-75
2023/10/04 04:40:10;;;;;;;1999.90;999.90;;;7.50;94.20;;;;;;5031458;28;20052;-76
2023/10/04 04:42:38;;;;;;;1999.90;999.90;;;7.50;94.10;;;;;;5036266;28;20033;-76
2023/10/04 04:45:06;;;;;;;1999.90;999.90;;;7.40;94.10;;;;;;5034529;28;20021;-75
2023/10/04 04:47:32;;;;;;;1999.90;999.90;;;7.40;94.10;;;;;;5033811;28;20132;-76
2023/10/04 04:49:57;;;;;;;1999.90;999.90;;;7.40;94.20;;;;;;5038253;28;20029;-76
2023/10/04 04:52:23;;;;;;;1999.90;999.90;;;7.40;94.40;;;;;;5037304;28;20029;-77
2023/10/04 04:54:48;;;;;;;1999.90;999.90;;;7.40;94.30;;;;;;5037909;28;20046;-77
2023/10/04 04:57:14;;;;;;;1999.90;999.90;;;7.30;94.30;;;;;;5035525;28;20028;-77
2023/10/04 04:59:42;;;;;;;1999.90;999.90;;;7.30;94.10;;;;;;5040328;28;20044;-77
2023/10/04 05:02:13;;;;;;;1999.90;999.90;;;7.20;94.10;;;;;;5032266;28;20029;-78
2023/10/04 05:04:39;;;;;;;1999.90;999.90;;;7.20;94.20;;;;;;5038114;28;20530;-77
2023/10/04 05:07:07;;;;;;;1999.90;999.90;;;7.20;94.30;;;;;;5037729;28;20037;-77
2023/10/04 05:09:34;;;;;;;1999.90;999.90;;;7.40;95.50;;;;;;5036505;28;20116;-76
2023/10/04 05:12:01;;;;;;;1999.90;999.90;;;7.40;95.20;;;;;;5033142;28;20064;-78
2023/10/04 05:14:27;;;;;;;1999.90;999.90;;;7.70;95.90;;;;;;5037100;28;20125;-78
2023/10/04 05:16:52;;;;;;;1999.90;999.90;;;8.10;97.50;;;;;;5037094;28;20124;-74
2023/10/04 05:19:18;;;;;;;1999.90;999.90;;;8.30;97.30;;;;;;5038330;28;20029;-76
2023/10/04 05:21:45;;;;;;;1999.90;999.90;;;8.40;97.00;;;;;;5036270;28;20132;-75
2023/10/04 05:24:10;;;;;;;1999.90;999.90;;;8.50;96.80;;;;;;5031043;28;20029;-76
2023/10/04 05:26:37;;;;;;;1999.90;999.90;;;8.40;96.70;;;;;;5038127;28;20035;-75
2023/10/04 05:29:03;;;;;;;1999.90;999.90;;;8.50;96.80;;;;;;5032407;28;20444;-73
2023/10/04 05:31:29;;;;;;;1999.90;999.90;;;8.50;96.70;;;;;;5029425;28;20083;-72
2023/10/04 05:34:01;;;;;;;1999.90;999.90;;;8.40;96.60;;;;;;5032508;28;20068;-81
2023/10/04 05:36:28;;;;;;;1999.90;999.90;;;8.40;96.50;;;;;;5039184;28;20029;-85
2023/10/04 05:38:54;;;;;;;1999.90;999.90;;;8.20;96.30;;;;;;5038953;28;20499;-82
2023/10/04 05:41:20;;;;;;;1999.90;999.90;;;8.20;96.30;;;;;;5038964;28;20039;-81
2023/10/04 05:43:45;;;;;;;1999.90;999.90;;;8.00;96.20;;;;;;5036891;28;20065;-83
2023/10/04 05:46:12;;;;;;;1999.90;999.90;;;8.00;96.20;;;;;;5038718;28;20061;-85
2023/10/04 05:48:37;;;;;;;1999.90;999.90;;;8.00;96.30;;;;;;5038842;28;20034;-81
2023/10/04 05:51:06;;;;;;;1999.90;999.90;;;8.00;96.20;;;;;;5043639;28;20091;-83
2023/10/04 05:53:32;;;;;;;1999.90;999.90;;;8.00;96.20;;;;;;5045243;28;20029;-82
2023/10/04 05:55:58;;;;;;;1999.90;999.90;;;8.00;96.10;;;;;;5037378;28;20037;-83
2023/10/04 05:58:25;;;;;;;1999.90;999.90;;;8.10;96.30;;;;;;5035115;28;20124;-83
2023/10/04 06:00:53;;;;;;;1999.90;999.90;;;8.10;96.30;;;;;;5041785;28;20068;-80
2023/10/04 06:03:19;;;;;;;1999.90;999.90;;;8.20;96.30;;;;;;5042638;28;20134;-84
2023/10/04 06:05:45;;;;;;;1999.90;999.90;;;8.30;96.30;;;;;;5044695;28;20049;-84
2023/10/04 06:08:24;;;;;;;1999.90;999.90;;;8.30;96.30;;;;;;5040062;28;20028;-83
2023/10/04 06:10:53;;;;;;;1999.90;999.90;;;8.10;96.20;;;;;;5036197;28;20053;-83
2023/10/04 06:13:22;;;;;;;1999.90;999.90;;;8.20;96.20;;;;;;5039857;28;20049;-82
2023/10/04 06:15:50;;;;;;;1999.90;999.90;;;8.20;96.20;;;;;;5036087;28;20115;-83
2023/10/04 06:18:19;;;;;;;1999.90;999.90;;;8.20;96.10;;;;;;5037853;28;20055;-86
2023/10/04 06:20:46;;;;;;;1999.90;999.90;;;8.30;96.20;;;;;;5038460;28;20033;-84
2023/10/04 06:23:17;;;;;;;1999.90;999.90;;;8.30;96.10;;;;;;5048749;28;20033;-82
2023/10/04 06:25:47;;;;;;;1999.90;999.90;;;8.40;96.10;;;;;;5038834;28;20037;-83
2023/10/04 06:28:14;;;;;;;1999.90;999.90;;;8.40;96.00;;;;;;5040903;28;20094;-81
2023/10/04 06:30:42;;;;;;;1999.90;999.90;;;8.50;96.10;;;;;;5038462;28;20442;-80
2023/10/04 06:33:09;;;;;;;1999.90;999.90;;;8.60;96.10;;;;;;5046342;28;20069;-82
2023/10/04 06:35:38;;;;;;;1999.90;999.90;;;8.70;96.00;;;;;;5039529;28;20028;-83
2023/10/04 06:38:08;;;;;;;1999.90;999.90;;;8.90;96.40;;;;;;5041519;28;20032;-82
2023/10/04 06:40:35;;;;;;;1999.90;999.90;;;9.00;96.00;;;;;;5042605;28;20032;-83
2023/10/04 06:43:04;;;;;;;1999.90;999.90;;;9.20;96.00;;;;;;5041800;28;20033;-80
2023/10/04 06:45:30;;;;;;;1999.90;999.90;;;9.30;96.00;;;;;;5040308;28;20056;-82
2023/10/04 06:47:58;;;;;;;1999.90;999.90;;;9.40;95.80;;;;;;5043779;28;20025;-85
2023/10/04 06:50:38;;;;;;;1999.90;999.90;;;9.50;95.50;;;;;;5040321;28;20021;-83
2023/10/04 06:53:04;;;;;;;1999.90;999.90;;;9.60;95.40;;;;;;5042453;28;20090;-82
2023/10/04 06:55:32;;;;;;;1999.90;999.90;;;9.70;95.30;;;;;;5043231;28;20028;-84
2023/10/04 06:57:58;;;;;;;1999.90;999.90;;;9.80;95.10;;;;;;5040735;28;20056;-83
2023/10/04 07:00:28;;;;;;;1999.90;999.90;;;9.90;94.80;;;;;;5041397;28;20601;-83
2023/10/04 07:02:58;;;;;;;1999.90;999.90;;;10.00;94.50;;;;;;5040334;28;20057;-81
2023/10/04 07:05:44;;;;;;;1999.90;999.90;;;9.90;94.40;;;;;;5038185;28;20040;-81
2023/10/04 07:08:16;;;;;;;1999.90;999.90;;;9.90;94.50;;;;;;5036355;28;20064;-85
2023/10/04 07:10:45;;;;;;;1999.90;999.90;;;9.90;94.30;;;;;;5034707;28;20037;-84
2023/10/04 07:13:12;;;;;;;1999.90;999.90;;;9.90;94.40;;;;;;5037204;28;20037;-83
2023/10/04 07:15:41;;;;;;;1999.90;999.90;;;10.00;94.50;;;;;;5036715;28;20090;-83
2023/10/04 07:18:12;;;;;;;1999.90;999.90;;;10.10;94.30;;;;;;5030556;28;20021;-79
2023/10/04 07:20:38;;;;;;;;;;;10.10;94.00;;;;;;5030112;28;20139;-83
2023/10/04 07:23:07;;;;;;;1999.90;999.90;;;10.30;93.90;;;;;;5033219;28;19974;-81
2023/10/04 07:25:37;;;;;;;1999.90;999.90;;;10.40;93.70;;;;;;5032107;28;20488;-81
2023/10/04 07:28:04;;;;;;;;;;;10.60;93.10;;;;;;5037305;28;20037;-82
2023/10/04 07:30:31;;;;;;;1999.90;999.90;;;10.60;92.80;;;;;;5031240;28;20280;-83
2023/10/04 07:33:01;;;;;;;1999.90;999.90;;;10.70;91.90;;;;;;5033515;28;20085;-83
2023/10/04 07:35:28;;;;;;;1999.90;999.90;;;10.90;92.00;;;;;;5070912;28;20200;-85
2023/10/04 07:37:55;;;;;;;1999.90;999.90;;;11.00;91.70;;;;;;5036005;28;20049;-83
2023/10/04 07:40:23;;;;;;;1999.90;999.90;;;11.10;91.60;;;;;;5042581;28;20029;-83
2023/10/04 07:42:53;;;;;;;1999.90;999.90;;;11.30;91.00;;;;;;5048117;28;20041;-83
2023/10/04 07:45:22;;;;;;;1999.90;999.90;;;11.40;91.30;;;;;;5035427;28;20040;-80
2023/10/04 07:47:48;;;;;;;1999.90;999.90;;;11.50;90.80;;;;;;5035057;28;20068;-80
2023/10/04 07:50:15;;;;;;;1999.90;999.90;;;11.60;90.30;;;;;;5036414;28;20516;-81
2023/10/04 07:52:44;;;;;;;1999.90;999.90;;;11.70;90.40;;;;;;5035354;28;20040;-81
2023/10/04 07:55:22;;;;;;;1999.90;999.90;;;11.70;88.20;;;;;;5034393;28;20526;-83
2023/10/04 07:57:53;;;;;;;1999.90;999.90;;;12.00;88.30;;;;;;5041842;28;20039;-81
2023/10/04 08:00:20;;;;;;;;;;;12.10;86.80;;;;;;5038247;28;20504;-80
2023/10/04 08:02:50;;;;;;;1999.90;999.90;;;12.10;84.90;;;;;;5036824;28;19918;-83
2023/10/04 08:05:27;;;;;;;1999.90;999.90;;;12.10;85.10;;;;;;5068588;28;20029;-83
2023/10/04 08:07:55;;;;;;;1999.90;999.90;;;12.30;84.70;;;;;;5038068;28;20037;-81
2023/10/04 08:10:25;;;;;;;1999.90;999.90;;;12.20;80.60;;;;;;5041980;28;20037;-81
2023/10/04 08:12:55;;;;;;;1999.90;999.90;;;12.40;82.30;;;;;;5043781;28;20040;-80
2023/10/04 08:15:25;;;;;;;1999.90;999.90;;;12.60;78.40;;;;;;5041576;28;20041;-80
2023/10/04 08:17:52;;;;;;;1999.90;999.90;;;12.80;80.20;;;;;;5037617;28;20877;-80
2023/10/04 08:20:20;;;;;;;1999.90;999.90;;;12.90;77.50;;;;;;5036609;28;20029;-80
2023/10/04 08:22:46;;;;;;;1999.90;999.90;;;12.80;76.20;;;;;;5039757;28;20035;-79
2023/10/04 08:25:16;;;;;;;1999.90;999.90;;;13.00;75.80;;;;;;5046039;28;20050;-81
2023/10/04 08:27:42;;;;;;;1999.90;999.90;;;13.10;75.00;;;;;;5042982;28;20039;-80
2023/10/04 08:30:13;;;;;;;1999.90;999.90;;;13.40;72.60;;;;;;5034510;28;20032;-80
2023/10/04 08:32:45;;;;;;;1999.90;999.90;;;13.50;72.90;;;;;;5041058;28;20080;-80
2023/10/04 08:35:21;;;;;;;1999.90;999.90;;;13.60;72.40;;;;;;5037199;28;20037;-81
2023/10/04 08:37:54;;;;;;;1999.90;999.90;;;13.90;72.70;;;;;;5042325;28;20064;-77
2023/10/04 08:40:20;;;;;;;1999.90;999.90;;;14.30;67.50;;;;;;5041421;28;20598;-82
2023/10/04 08:42:50;;;;;;;1999.90;999.90;;;14.40;68.80;;;;;;5040598;28;20021;-77
2023/10/04 08:45:17;;;;;;;1999.90;999.90;;;14.40;64.70;;;;;;5038225;28;20462;-82
2023/10/04 08:47:50;;;;;;;1999.90;999.90;;;14.50;64.90;;;;;;5038325;28;20044;-81
2023/10/04 08:50:24;;;;;;;1999.90;999.90;;;14.40;65.30;;;;;;5037033;28;20029;-84
2023/10/04 08:52:55;;;;;;;1999.90;999.90;;;14.30;64.90;;;;;;5039207;28;20059;-82
2023/10/04 08:55:23;;;;;;;1999.90;999.90;;;14.40;64.60;;;;;;5037043;28;20065;-82
2023/10/04 08:57:50;;;;;;;1999.90;999.90;;;14.60;65.50;;;;;;5036254;28;20033;-85
2023/10/04 09:00:23;;;;;;;1999.90;999.90;;;14.50;64.50;;;;;;5033720;28;20037;-81
2023/10/04 09:02:51;;;;;;;1999.90;999.90;;;14.70;65.60;;;;;;5038013;28;20037;-83
2023/10/04 09:05:17;;;;;;;1999.90;999.90;;;14.60;64.30;;;;;;5037954;28;20033;-82
2023/10/04 09:07:43;;;;;;;1999.90;999.90;;;14.80;64.70;;;;;;5040812;28;20346;-81
2023/10/04 09:10:15;;;;;;;1999.90;999.90;;;14.80;62.80;;;;;;5031686;28;20037;-81
2023/10/04 09:12:47;;;;;;;1999.90;999.90;;;14.80;62.60;;;;;;5031930;28;20553;-82
2023/10/04 09:15:13;;;;;;;1999.90;999.90;;;14.90;65.10;;;;;;5040600;28;20063;-82
2023/10/04 09:17:47;;;;;;;1999.90;999.90;;;15.10;63.30;;;;;;5036519;28;20076;-82
2023/10/04 09:20:15;;;;;;;1999.90;999.90;;;15.20;59.20;;;;;;5034668;28;20033;-81
2023/10/04 09:22:41;;;;;;;1999.90;999.90;;;15.20;57.40;;;;;;5038168;28;20053;-82
2023/10/04 09:25:07;;;;;;;1999.90;999.90;;;15.30;58.50;;;;;;5037394;28;20041;-81
2023/10/04 09:27:33;;;;;;;1999.90;999.90;;;15.30;56.70;;;;;;5035603;28;20044;-82
2023/10/04 09:29:59;;;;;;;1999.90;999.90;;;15.50;57.80;;;;;;5036509;28;20034;-80
2023/10/04 09:32:42;;;;;;;1999.90;999.90;;;15.50;57.80;;;;;;5035000;28;20058;-81
2023/10/04 09:35:08;;;;;;;1999.90;999.90;;;15.50;58.00;;;;;;5030089;28;20040;-82
2023/10/04 09:37:34;;;;;;;1999.90;999.90;;;15.70;57.90;;;;;;5031212;28;20029;-80
2023/10/04 09:40:07;;;;;;;1999.90;999.90;;;15.90;57.30;;;;;;5033866;28;20120;-81
2023/10/04 09:42:51;;;;;;;1999.90;999.90;;;16.00;57.90;;;;;;5037981;28;20036;-82
2023/10/04 09:45:21;;;;;;;1999.90;999.90;;;16.00;56.40;;;;;;5027809;28;20410;-81
2023/10/04 09:47:50;;;;;;;1999.90;999.90;;;16.20;58.30;;;;;;5033840;28;20044;-81
2023/10/04 09:50:24;;;;;;;1999.90;999.90;;;16.20;59.50;;;;;;5034177;28;20044;-80
2023/10/04 09:52:51;;;;;;;1999.90;999.90;;;16.10;60.50;;;;;;5031893;28;20450;-80
2023/10/04 09:55:17;;;;;;;1999.90;999.90;;;16.40;59.70;;;;;;5031275;28;20033;-80
2023/10/04 09:57:44;;;;;;;1999.90;999.90;;;16.20;56.50;;;;;;5032227;28;20354;-79
2023/10/04 10:00:17;;;;;;;1999.90;999.90;;;16.10;56.30;;;;;;5032538;28;20034;-79
2023/10/04 10:03:06;;;;;;;1999.90;999.90;;;16.20;55.80;;;;;;5029174;28;20068;-81
2023/10/04 10:05:33;;;;;;;1999.90;999.90;;;16.70;55.20;;;;;;5025985;28;20087;-79
2023/10/04 10:08:06;;;;;;;1999.90;999.90;;;17.20;53.70;;;;;;5030124;28;20060;-80
2023/10/04 10:10:37;;;;;;;1999.90;999.90;;;17.40;52.00;;;;;;5033921;28;20380;-79
2023/10/04 10:13:05;;;;;;;1999.90;999.90;;;17.40;50.90;;;;;;5028679;28;20029;-79
2023/10/04 10:15:31;;;;;;;1999.90;999.90;;;17.20;51.30;;;;;;5030811;28;20061;-80
2023/10/04 10:17:59;;;;;;;1999.90;999.90;;;17.50;51.20;;;;;;5033033;28;20509;-81
2023/10/04 10:20:26;;;;;;;1999.90;999.90;;;17.80;50.10;;;;;;5030158;28;20032;-80
2023/10/04 10:22:58;;;;;;;1999.90;999.90;;;17.90;49.80;;;;;;5035673;28;20469;-79
2023/10/04 10:25:27;;;;;;;1999.90;999.90;;;18.10;49.00;;;;;;5037949;28;20025;-81
2023/10/04 10:28:01;;;;;;;1999.90;999.90;;;18.00;50.20;;;;;;5029710;28;20037;-80
2023/10/04 10:30:28;;;;;;;1999.90;999.90;;;17.90;48.90;;;;;;5029723;28;20025;-81
2023/10/04 10:32:57;;;;;;;1999.90;999.90;;;17.90;49.20;;;;;;5039849;28;20048;-80
2023/10/04 10:35:59;;;;;;;1999.90;999.90;;;17.70;49.20;;;;;;5029700;28;20432;-80
2023/10/04 10:38:39;;;;;;;1999.90;999.90;;;17.80;50.20;;;;;;5029381;28;20053;-81
2023/10/04 10:41:06;;;;;;;1999.90;999.90;;;17.40;49.60;;;;;;5031613;28;20210;-80
2023/10/04 10:43:35;;;;;;;1999.90;999.90;;;17.30;51.00;;;;;;5027282;28;20033;-79
2023/10/04 10:46:28;;;;;;;1999.90;999.90;;;17.00;51.10;;;;;;5035000;28;20048;-78
2023/10/04 10:49:02;;;;;;;1999.90;999.90;;;16.80;52.50;;;;;;5030846;28;20025;-79
2023/10/04 10:51:45;;;;;;;1999.90;999.90;;;17.40;52.90;;;;;;5032710;28;20029;-78
2023/10/04 10:54:12;;;;;;;1999.90;999.90;;;17.40;50.10;;;;;;5033061;28;20084;-78
2023/10/04 10:56:38;;;;;;;1999.90;999.90;;;17.50;51.00;;;;;;5034661;28;20060;-78
2023/10/04 10:59:07;;;;;;;1999.90;999.90;;;17.90;50.20;;;;;;5037467;28;20060;-78
2023/10/04 11:01:32;;;;;;;1999.90;999.90;;;18.20;48.60;;;;;;5033566;28;20028;-79
2023/10/04 11:03:59;;;;;;;1999.90;999.90;;;18.40;48.90;;;;;;5036004;28;20033;-79
2023/10/04 11:06:25;;;;;;;1999.90;999.90;;;18.50;47.50;;;;;;5035684;28;20075;-78
2023/10/04 11:08:55;;;;;;;1999.90;999.90;;;19.30;46.40;;;;;;5034305;28;20071;-78
2023/10/04 11:11:21;;;;;;;1999.90;999.90;;;20.30;45.70;;;;;;5031472;28;20026;-75
2023/10/04 11:13:48;;;;;;;1999.90;999.90;;;21.10;42.20;;;;;;5035575;28;20061;-76
2023/10/04 11:16:16;;;;;;;1999.90;999.90;;;20.90;40.80;;;;;;5031597;28;20025;-80
2023/10/04 11:18:45;;;;;;;1999.90;999.90;;;20.40;43.10;;;;;;5035956;28;20029;-85
2023/10/04 11:21:11;;;;;;;1999.90;999.90;;;19.70;45.20;;;;;;5017716;28;20044;-75
2023/10/04 11:23:38;;;;;;;1999.90;999.90;;;21.00;42.90;;;;;;5035658;28;20165;-75
2023/10/04 11:26:09;;;;;;;1999.90;999.90;;;21.80;40.10;;;;;;5035621;28;20049;-76
2023/10/04 11:28:35;;;;;;;1999.90;999.90;;;22.00;38.60;;;;;;5034264;28;21163;-76
2023/10/04 11:31:01;;;;;;;1999.90;999.90;;;21.10;39.80;;;;;;5040108;28;20072;-76
2023/10/04 11:33:27;;;;;;;1999.90;999.90;;;21.00;40.20;;;;;;5037134;28;20576;-75
2023/10/04 11:35:53;;;;;;;1999.90;999.90;;;21.80;40.30;;;;;;5041038;28;20021;-76
2023/10/04 11:38:23;;;;;;;1999.90;999.90;;;22.20;37.40;;;;;;5043358;28;20021;-75
2023/10/04 11:40:50;;;;;;;1999.90;999.90;;;22.10;37.00;;;;;;5039573;28;20037;-76
2023/10/04 11:43:16;;;;;;;1999.90;999.90;;;21.60;36.70;;;;;;5033794;28;20189;-76
2023/10/04 11:45:42;;;;;;;1999.90;999.90;;;21.90;35.30;;;;;;5042679;28;20493;-76
2023/10/04 11:48:10;;;;;;;1999.90;999.90;;;22.70;34.30;;;;;;5040411;28;20124;-76
2023/10/04 11:50:51;;;;;;;1999.90;999.90;;;22.60;34.80;;;;;;5036113;28;20057;-76
2023/10/04 11:53:30;;;;;;;1999.90;999.90;;;22.80;35.70;;;;;;5035533;28;20124;-76
2023/10/04 11:56:06;;;;;;;1999.90;999.90;;;22.40;34.70;;;;;;5030398;28;20065;-76
2023/10/04 11:58:52;;;;;;;1999.90;999.90;;;23.30;33.20;;;;;;5035194;28;20144;-76
2023/10/04 12:01:20;;;;;;;1999.90;999.90;;;21.50;36.90;;;;;;5041348;28;20629;-76
2023/10/04 12:03:58;;;;;;;1999.90;999.90;;;21.50;37.50;;;;;;5036655;28;20491;-76
2023/10/04 12:06:33;;;;;;;1999.90;999.90;;;22.90;35.50;;;;;;5038313;28;20037;-76
2023/10/04 12:08:58;;;;;;;1999.90;999.90;;;23.10;35.80;;;;;;5038258;28;20059;-76
2023/10/04 12:11:33;;;;;;;1999.90;999.90;;;23.10;32.70;;;;;;5031411;28;20063;-75
2023/10/04 12:13:59;;;;;;;1999.90;999.90;;;22.20;34.50;;;;;;5035177;28;20096;-77
2023/10/04 12:16:25;;;;;;;1999.90;999.90;;;23.30;36.50;;;;;;5017018;28;20071;-76